الصفحة الرئيسية
METAR-TAF:

METAR-TAF

مطار :

كوراساو, جزر الأنتيل الهولندية

دائرة عرض: 12-12N, خط طول: 068-58W, ارتفاع: 9 متر

مراقبة الطقس الحالي

تاريخ ووقت الإصدار 7 دقيقة قبل الساعة 17:00UTC
ريح 17 عقدة من الشرق/الجنوب الشرقي
درجة الحرارة 31°درجة مئوية
الرطوبة 66%
ضغط 1012 hPa
الرؤية 10 كم أو أكثر
غيوم قليلة على ارتفاع 2200 قدم

METAR: TNCC 171700Z 11017KT 9999 FEW022 31/24 Q1012 NOSIG

زمن: 13:07 (17:07 UTC)

توقعات

تاريخ ووقت الإصدار 7ساعات و 37 دقيقة قبل الساعة 09:30UTC
التوقعات صالحة من17 الساعة 12 UTC إلى 18 الساعة 12 UTC
ريح 14 عقدة من الشرق تتزايد حتى 25 عقدة
الرؤية 10 كم أو أكثر
غيوم متفرقة على ارتفاع 2000 قدم
نظرية الاحتمالات 30% :
مؤقت
من 17 الساعة 12 UTC إلى 17 الساعة 16 UTC
الرؤية: 5000 متر
غيوم مفككة على ارتفاع 1500 قدم
زخات من المطر

TAF: TNCC 170930Z 1712/1812 10014G25KT 9999 SCT020 PROB30 TEMPO 1712/1716 5000 SHRA BKN015

أرصاد الطقس والتوقعات من أكثر من 4000 مطار (تقارير الطقس للمطار METAR والتنبؤ بالطقس بالمطارTAF).

المحطات المتاحة هي النقط الصفراء والحمراء على الخريطة.

حرك المؤشر فوق النقطة لمعرفة اسم المحطة.

ثم انقر لمعرفة أرصاد وتوقعات الطقس.

لتغيير الخارطة: اضغط على الأزرار الخضراء مع رمز الصليب الأسود للتكبير. على الزر الأخضر مع شرطة للتصغير، أو على الأسهم الخضراء للخرائط المجاورة.


METAR-TAF: